Time;durP1;ratioP1;P1;durP2;ratioP2;P2;SDS_P1;SDS_P2;PMS_P1;PMS_P2;Temp;Humidity;BMP_temperature;BMP_pressure;BME280_temperature;BME280_humidity;BME280_pressure;Samples;Min_cycle;Max_cycle;Signal;HPM_P1;HPM_P2
2022/04/25 00:01:10;;;;;;;12.77;10.33;;;7.70;99.90;;;;;;5061951;28;20447;-81
2022/04/25 00:03:37;;;;;;;10.57;8.90;;;7.70;99.90;;;;;;5066675;28;20426;-78
2022/04/25 00:06:04;;;;;;;12.53;9.13;;;7.80;99.90;;;;;;5070616;28;20844;-80
2022/04/25 00:08:30;;;;;;;16.20;10.43;;;7.70;99.90;;;;;;5068148;28;20512;-80
2022/04/25 00:10:58;;;;;;;12.50;9.97;;;7.70;99.90;;;;;;5069116;28;20798;-80
2022/04/25 00:13:25;;;;;;;10.43;9.23;;;7.70;99.90;;;;;;5068205;28;20820;-78
2022/04/25 00:15:52;;;;;;;15.43;10.07;;;7.70;99.90;;;;;;5068561;28;20684;-80
2022/04/25 00:18:19;;;;;;;11.77;9.17;;;7.70;99.90;;;;;;5067263;28;20465;-80
2022/04/25 00:20:45;;;;;;;12.57;10.10;;;7.60;99.90;;;;;;5062656;28;20422;-81
2022/04/25 00:23:12;;;;;;;14.60;10.07;;;7.60;99.90;;;;;;5061785;28;20476;-83
2022/04/25 00:25:39;;;;;;;13.87;10.90;;;7.60;99.90;;;;;;5062150;28;20449;-80
2022/04/25 00:28:07;;;;;;;16.03;10.80;;;7.60;99.90;;;;;;5064691;28;20518;-79
2022/04/25 00:30:34;;;;;;;15.50;11.32;;;7.50;99.90;;;;;;5063530;28;20445;-80
2022/04/25 00:33:02;;;;;;;13.23;10.63;;;7.50;99.90;;;;;;5062536;28;20211;-82
2022/04/25 00:35:29;;;;;;;15.13;11.00;;;7.40;99.90;;;;;;5061471;28;20422;-82
2022/04/25 00:37:56;;;;;;;14.20;10.90;;;7.50;99.90;;;;;;5061685;28;20508;-81
2022/04/25 00:40:24;;;;;;;17.77;11.23;;;7.50;99.90;;;;;;5065162;28;20819;-80
2022/04/25 00:42:51;;;;;;;13.97;10.30;;;7.50;99.90;;;;;;5063851;28;20452;-79
2022/04/25 00:45:19;;;;;;;12.32;10.60;;;7.50;99.90;;;;;;5063482;28;20449;-82
2022/04/25 00:47:46;;;;;;;13.40;10.90;;;7.60;99.90;;;;;;5064400;28;20281;-80
2022/04/25 00:50:14;;;;;;;15.20;12.07;;;7.60;99.90;;;;;;5063820;28;20460;-80
2022/04/25 00:52:41;;;;;;;15.37;11.37;;;7.50;99.90;;;;;;5061690;28;20435;-80
2022/04/25 00:55:10;;;;;;;17.43;11.17;;;7.50;99.90;;;;;;5067961;28;20410;-81
2022/04/25 00:57:37;;;;;;;16.40;11.00;;;7.40;99.90;;;;;;5062711;28;20460;-80
2022/04/25 01:00:08;;;;;;;12.33;11.03;;;7.40;99.90;;;;;;5062527;28;20241;-81
2022/04/25 01:02:37;;;;;;;19.40;11.80;;;7.40;99.90;;;;;;5061467;28;20525;-80
2022/04/25 01:05:05;;;;;;;15.00;11.77;;;7.40;99.90;;;;;;5061625;28;20426;-82
2022/04/25 01:07:32;;;;;;;15.55;12.45;;;7.40;99.90;;;;;;5059967;28;20492;-82
2022/04/25 01:10:00;;;;;;;18.15;12.80;;;7.40;99.90;;;;;;5060415;28;20248;-82
2022/04/25 01:12:27;;;;;;;16.60;13.50;;;7.30;99.90;;;;;;5060670;28;20295;-81
2022/04/25 01:14:57;;;;;;;13.30;11.43;;;7.40;99.90;;;;;;5060904;28;20304;-80
2022/04/25 01:17:24;;;;;;;16.77;12.27;;;7.30;99.90;;;;;;5060034;28;20643;-81
2022/04/25 01:19:52;;;;;;;15.60;12.02;;;7.30;99.90;;;;;;5059606;28;20238;-81
2022/04/25 01:22:22;;;;;;;22.95;15.10;;;7.30;99.90;;;;;;5059133;28;20553;-81
2022/04/25 01:27:34;;;;;;;17.15;12.30;;;7.30;99.90;;;;;;5063388;28;20298;-80
2022/04/25 01:30:01;;;;;;;19.23;13.50;;;7.30;99.90;;;;;;5062210;28;20210;-79
2022/04/25 01:32:27;;;;;;;19.42;13.50;;;7.30;99.90;;;;;;5059255;28;20230;-81
2022/04/25 01:34:54;;;;;;;24.85;17.70;;;7.30;99.90;;;;;;5058849;28;20237;-80
2022/04/25 01:37:21;;;;;;;26.17;22.15;;;7.20;99.90;;;;;;5058115;28;20256;-80
2022/04/25 01:39:50;;;;;;;33.30;25.65;;;7.20;99.90;;;;;;5061294;28;20213;-81
2022/04/25 01:42:18;;;;;;;32.30;21.42;;;7.20;99.90;;;;;;5059315;28;20231;-81
2022/04/25 01:44:45;;;;;;;23.90;18.05;;;7.30;99.90;;;;;;5059667;28;20239;-81
2022/04/25 01:47:12;;;;;;;21.50;16.48;;;7.30;99.90;;;;;;5063694;28;20265;-79
2022/04/25 01:49:39;;;;;;;21.70;14.93;;;7.30;99.90;;;;;;5061568;28;20205;-81
2022/04/25 01:52:09;;;;;;;27.58;14.98;;;7.30;99.90;;;;;;5059101;28;20416;-80
2022/04/25 01:54:35;;;;;;;23.10;14.33;;;7.40;99.90;;;;;;5058887;28;20248;-80
2022/04/25 01:57:04;;;;;;;15.65;13.43;;;7.60;99.90;;;;;;5058735;28;20434;-81
2022/04/25 01:59:31;;;;;;;16.97;13.00;;;7.30;99.90;;;;;;5057835;28;20229;-81
2022/04/25 02:02:00;;;;;;;18.00;13.10;;;7.30;99.90;;;;;;5057216;28;20427;-80
2022/04/25 02:04:26;;;;;;;17.90;14.03;;;7.30;99.90;;;;;;5058975;28;20447;-82
2022/04/25 02:06:53;;;;;;;22.50;15.63;;;7.00;99.90;;;;;;5058775;28;20421;-82
2022/04/25 02:09:22;;;;;;;20.03;14.73;;;7.20;99.90;;;;;;5060250;28;20197;-79
2022/04/25 02:11:49;;;;;;;18.98;14.50;;;7.20;99.90;;;;;;5061623;28;20430;-81
2022/04/25 02:14:17;;;;;;;19.45;14.55;;;7.20;99.90;;;;;;5061462;28;20214;-81
2022/04/25 02:16:44;;;;;;;21.55;14.27;;;7.20;99.90;;;;;;5059791;28;20210;-80
2022/04/25 02:19:12;;;;;;;20.10;15.23;;;7.20;99.90;;;;;;5058853;28;20292;-81
2022/04/25 02:21:38;;;;;;;16.85;14.52;;;7.20;99.90;;;;;;5062096;28;20262;-81
2022/04/25 02:24:06;;;;;;;19.85;14.55;;;7.20;99.90;;;;;;5057584;28;20670;-81
2022/04/25 02:26:33;;;;;;;21.10;14.68;;;7.10;99.90;;;;;;5057760;28;20246;-81
2022/04/25 02:28:59;;;;;;;20.02;13.77;;;7.10;99.90;;;;;;5057503;28;20659;-82
2022/04/25 02:31:27;;;;;;;17.35;13.90;;;7.10;99.90;;;;;;5061398;28;20258;-81
2022/04/25 02:33:53;;;;;;;25.30;15.30;;;7.00;99.90;;;;;;5062291;28;20227;-79
2022/04/25 02:36:20;;;;;;;16.25;12.80;;;7.00;99.90;;;;;;5062550;28;20232;-82
2022/04/25 02:38:47;;;;;;;15.13;13.45;;;7.00;99.90;;;;;;5063099;28;20727;-79
2022/04/25 02:41:13;;;;;;;19.70;14.95;;;7.10;99.90;;;;;;5060199;28;20201;-80
2022/04/25 02:43:42;;;;;;;20.42;14.93;;;7.10;99.90;;;;;;5057410;28;20244;-81
2022/04/25 02:46:10;;;;;;;19.75;14.55;;;7.00;99.90;;;;;;5057545;28;20232;-81
2022/04/25 02:48:40;;;;;;;19.08;14.35;;;7.00;99.90;;;;;;5058638;28;20225;-78
2022/04/25 02:51:08;;;;;;;19.00;14.50;;;7.00;99.90;;;;;;5058687;28;20681;-81
2022/04/25 02:53:35;;;;;;;19.37;14.90;;;6.90;99.90;;;;;;5060616;28;20205;-82
2022/04/25 02:56:03;;;;;;;23.02;16.27;;;7.00;99.90;;;;;;5063517;28;20451;-79
2022/04/25 02:58:31;;;;;;;20.67;14.07;;;6.90;99.90;;;;;;5064890;28;20230;-79
2022/04/25 03:00:58;;;;;;;23.60;15.57;;;6.90;99.90;;;;;;5059893;28;20206;-81
2022/04/25 03:03:25;;;;;;;20.45;15.02;;;6.80;99.90;;;;;;5057814;28;20226;-81
2022/04/25 03:05:54;;;;;;;18.20;14.23;;;6.80;99.90;;;;;;5057686;28;20576;-81
2022/04/25 03:08:22;;;;;;;22.17;15.53;;;6.80;99.90;;;;;;5057283;28;20268;-82
2022/04/25 03:10:51;;;;;;;17.92;13.80;;;6.80;99.90;;;;;;5057208;28;20486;-81
2022/04/25 03:13:18;;;;;;;18.20;13.35;;;6.80;99.90;;;;;;5056716;28;20208;-81
2022/04/25 03:15:46;;;;;;;36.22;21.88;;;6.70;99.90;;;;;;5058224;28;20279;-81
2022/04/25 03:18:15;;;;;;;22.48;14.93;;;6.80;99.90;;;;;;5058074;28;20228;-82
2022/04/25 03:20:43;;;;;;;23.58;15.52;;;6.80;99.90;;;;;;5059063;28;20261;-81
2022/04/25 03:23:11;;;;;;;19.58;13.63;;;6.70;99.90;;;;;;5057224;28;20235;-81
2022/04/25 03:25:39;;;;;;;17.75;14.10;;;6.70;99.90;;;;;;5056388;28;20630;-81
2022/04/25 03:28:06;;;;;;;20.48;14.80;;;6.70;99.90;;;;;;5056653;28;20225;-80
2022/04/25 03:30:33;;;;;;;18.42;14.40;;;6.70;99.90;;;;;;5057199;28;20240;-81
2022/04/25 03:33:00;;;;;;;22.10;15.00;;;6.70;99.90;;;;;;5057469;28;20264;-82
2022/04/25 03:35:27;;;;;;;21.35;13.75;;;6.70;99.90;;;;;;5057340;28;20244;-81
2022/04/25 03:37:54;;;;;;;22.52;15.43;;;6.70;99.90;;;;;;5062162;28;20238;-80
2022/04/25 03:40:22;;;;;;;22.25;14.50;;;6.60;99.90;;;;;;5059339;28;20208;-81
2022/04/25 03:42:49;;;;;;;18.17;14.43;;;6.60;99.90;;;;;;5059309;28;20248;-80
2022/04/25 03:45:18;;;;;;;19.85;14.50;;;6.60;99.90;;;;;;5059902;28;20216;-80
2022/04/25 03:47:46;;;;;;;20.70;13.05;;;6.60;99.90;;;;;;5059838;28;20622;-80
2022/04/25 03:50:14;;;;;;;23.95;14.25;;;6.60;99.90;;;;;;5059837;28;20208;-80
2022/04/25 03:52:42;;;;;;;20.13;14.18;;;6.50;99.90;;;;;;5061067;28;20205;-80
2022/04/25 03:57:57;;;;;;;23.73;14.88;;;6.50;99.90;;;;;;5058678;28;20219;-80
2022/04/25 04:00:24;;;;;;;24.70;14.93;;;6.50;99.90;;;;;;5061303;28;20199;-78
2022/04/25 04:02:50;;;;;;;17.90;13.98;;;6.50;99.90;;;;;;5060913;28;20205;-78
2022/04/25 04:05:18;;;;;;;19.13;14.60;;;6.60;99.90;;;;;;5060678;28;20208;-83
2022/04/25 04:07:45;;;;;;;20.35;15.15;;;6.50;99.90;;;;;;5058805;28;20246;-80
2022/04/25 04:10:12;;;;;;;29.15;17.13;;;6.50;99.90;;;;;;5059526;28;20209;-81
2022/04/25 04:12:39;;;;;;;17.80;14.38;;;6.50;99.90;;;;;;5061321;28;20205;-80
2022/04/25 04:15:08;;;;;;;18.85;15.23;;;6.40;99.90;;;;;;5060806;28;20204;-80
2022/04/25 04:17:36;;;;;;;21.77;15.10;;;6.50;99.90;;;;;;5059672;28;20466;-79
2022/04/25 04:20:03;;;;;;;18.27;13.75;;;6.50;99.90;;;;;;5060824;28;20212;-80
2022/04/25 04:22:31;;;;;;;16.48;13.13;;;6.50;99.90;;;;;;5061535;28;20294;-81
2022/04/25 04:24:59;;;;;;;18.40;13.55;;;6.50;99.90;;;;;;5060999;28;20255;-82
2022/04/25 04:27:26;;;;;;;21.08;14.68;;;6.50;99.90;;;;;;5064495;28;20247;-82
2022/04/25 04:29:53;;;;;;;20.05;13.30;;;6.50;99.90;;;;;;5063270;28;20239;-78
2022/04/25 04:32:21;;;;;;;18.77;14.15;;;6.40;99.90;;;;;;5063290;28;20203;-79
2022/04/25 04:34:47;;;;;;;17.95;14.18;;;6.40;99.90;;;;;;5063182;28;20663;-80
2022/04/25 04:39:46;;;;;;;17.77;15.13;;;6.50;99.90;;;;;;5100018;28;20227;-78
2022/04/25 04:42:12;;;;;;;22.23;14.80;;;6.50;99.90;;;;;;5102423;28;20234;-80
2022/04/25 04:44:41;;;;;;;22.13;13.60;;;6.50;99.90;;;;;;5102182;28;20693;-80
2022/04/25 04:47:07;;;;;;;14.65;12.95;;;6.50;99.90;;;;;;5104132;28;20220;-80
2022/04/25 04:49:35;;;;;;;19.60;13.57;;;6.60;99.90;;;;;;5086768;28;20255;-81
2022/04/25 04:52:02;;;;;;;18.00;13.85;;;6.50;99.90;;;;;;5082548;28;20198;-81
2022/04/25 04:54:29;;;;;;;20.88;14.13;;;6.50;99.90;;;;;;5082921;28;20210;-81
2022/04/25 04:56:55;;;;;;;22.23;14.70;;;6.50;99.90;;;;;;5086910;28;20601;-81
2022/04/25 04:59:22;;;;;;;22.83;14.05;;;6.60;99.90;;;;;;5093996;28;20224;-80
2022/04/25 05:01:48;;;;;;;21.73;13.77;;;6.70;99.90;;;;;;5090965;28;20196;-80
2022/04/25 05:04:15;;;;;;;18.92;13.20;;;6.70;99.90;;;;;;5095342;28;20191;-79
2022/04/25 05:06:43;;;;;;;23.73;15.75;;;6.70;99.90;;;;;;5094871;28;20207;-79
2022/04/25 05:09:09;;;;;;;21.52;14.93;;;6.60;99.90;;;;;;5090411;28;20288;-81
2022/04/25 05:11:36;;;;;;;19.42;13.95;;;6.70;99.90;;;;;;5083368;28;20203;-81
2022/04/25 05:14:08;;;;;;;17.40;13.32;;;6.80;99.90;;;;;;5079493;28;20242;-81
2022/04/25 05:16:34;;;;;;;29.83;14.85;;;6.80;99.90;;;;;;5080084;28;20187;-80
2022/04/25 05:19:02;;;;;;;20.98;14.60;;;6.80;99.90;;;;;;5086299;28;20261;-81
2022/04/25 05:21:28;;;;;;;26.27;15.93;;;6.90;99.90;;;;;;5082624;28;20640;-80
2022/04/25 05:23:56;;;;;;;22.75;13.38;;;7.00;99.90;;;;;;5079321;28;20606;-80
2022/04/25 05:26:23;;;;;;;17.38;12.63;;;7.10;99.90;;;;;;5082002;28;20208;-80
2022/04/25 05:28:50;;;;;;;19.60;13.75;;;7.10;99.90;;;;;;5080595;28;20228;-80
2022/04/25 05:31:18;;;;;;;18.40;14.52;;;7.10;99.90;;;;;;5081037;28;20294;-81
2022/04/25 05:33:44;;;;;;;21.67;13.88;;;7.10;99.90;;;;;;5081017;28;20230;-81
2022/04/25 05:36:11;;;;;;;23.63;14.93;;;7.10;99.90;;;;;;5081345;28;20654;-81
2022/04/25 05:38:37;;;;;;;31.40;14.40;;;7.00;99.90;;;;;;5080242;28;20262;-79
2022/04/25 05:41:07;;;;;;;22.90;14.63;;;6.90;99.90;;;;;;5084139;28;20219;-80
2022/04/25 05:43:34;;;;;;;18.65;13.90;;;6.90;99.90;;;;;;5084790;28;20204;-79
2022/04/25 05:46:00;;;;;;;16.77;13.38;;;7.10;99.90;;;;;;5081942;28;20221;-81
2022/04/25 05:53:55;;;;;;;18.17;13.25;;;7.00;99.90;;;;;;5082309;28;20270;-81
2022/04/25 05:56:23;;;;;;;16.52;12.70;;;7.10;99.90;;;;;;5081339;28;20229;-82
2022/04/25 05:58:50;;;;;;;19.92;13.23;;;7.10;99.90;;;;;;5082686;28;20252;-81
2022/04/25 06:01:16;;;;;;;23.63;13.70;;;7.10;99.90;;;;;;5081156;28;20239;-81
2022/04/25 06:03:43;;;;;;;21.15;14.05;;;7.10;99.90;;;;;;5097870;28;20428;-79
2022/04/25 06:06:10;;;;;;;24.77;13.80;;;7.10;99.90;;;;;;5098514;28;20187;-79
2022/04/25 06:08:36;;;;;;;20.13;13.00;;;7.20;99.90;;;;;;5091363;28;20224;-80
2022/04/25 06:11:03;;;;;;;19.88;12.73;;;7.40;99.90;;;;;;5081428;28;20423;-80
2022/04/25 06:13:31;;;;;;;20.83;11.63;;;7.60;78.40;;;;;;5082780;28;20217;-80
2022/04/25 06:15:57;;;;;;;16.08;11.80;;;7.30;99.90;;;;;;5082892;28;20434;-81
2022/04/25 06:18:24;;;;;;;16.17;11.60;;;7.20;99.90;;;;;;5081571;28;20254;-81
2022/04/25 06:20:51;;;;;;;13.23;10.50;;;7.30;99.90;;;;;;5078721;28;20598;-79
2022/04/25 06:23:18;;;;;;;18.48;9.63;;;7.40;99.90;;;;;;5080641;28;20544;-79
2022/04/25 06:25:45;;;;;;;15.53;10.10;;;7.50;99.90;;;;;;5082206;28;20202;-81
2022/04/25 06:28:12;;;;;;;11.80;9.73;;;7.40;99.90;;;;;;5082570;28;20498;-82
2022/04/25 06:30:40;;;;;;;16.43;10.40;;;7.30;99.90;;;;;;5079970;28;20468;-80
2022/04/25 06:33:07;;;;;;;11.80;9.87;;;7.50;97.30;;;;;;5079294;28;20448;-80
2022/04/25 06:35:33;;;;;;;12.13;9.60;;;7.80;47.90;;;;;;5078977;28;20437;-79
2022/04/25 06:38:00;;;;;;;13.00;8.63;;;7.80;62.30;;;;;;5077890;28;20513;-80
2022/04/25 06:40:27;;;;;;;13.07;9.67;;;7.90;11.70;;;;;;5077869;28;20796;-81
2022/04/25 06:42:53;;;;;;;13.33;10.30;;;7.80;7.30;;;;;;5078931;28;20476;-80
2022/04/25 06:45:20;;;;;;;16.00;8.90;;;7.70;17.00;;;;;;5078150;28;20649;-81
2022/04/25 06:47:48;;;;;;;12.30;8.70;;;7.90;29.70;;;;;;5079296;28;20479;-81
2022/04/25 06:50:15;;;;;;;10.87;8.37;;;8.10;1.00;;;;;;5085065;28;20483;-78
2022/04/25 06:52:42;;;;;;;13.83;9.13;;;8.00;1.00;;;;;;5092461;28;20464;-79
2022/04/25 06:55:10;;;;;;;14.00;7.90;;;7.80;1.00;;;;;;5093189;28;20437;-79
2022/04/25 06:57:37;;;;;;;10.47;8.03;;;7.70;1.00;;;;;;5086034;28;20526;-79
2022/04/25 07:00:08;;;;;;;14.27;9.90;;;7.70;23.60;;;;;;5083153;28;20852;-79
2022/04/25 07:02:35;;;;;;;12.47;10.33;;;7.70;1.00;;;;;;5085702;28;20429;-81
2022/04/25 07:05:04;;;;;;;13.60;10.50;;;7.70;17.20;;;;;;5081389;28;20506;-80
2022/04/25 07:07:31;;;;;;;11.10;9.43;;;7.60;3.70;;;;;;5083319;28;20450;-81
2022/04/25 07:09:58;;;;;;;11.77;9.60;;;7.90;1.00;;;;;;5093127;28;20500;-78
2022/04/25 07:12:24;;;;;;;16.63;10.10;;;7.80;1.00;;;;;;5096455;28;20429;-82
2022/04/25 07:14:51;;;;;;;14.83;10.27;;;8.00;1.00;;;;;;5087179;28;20420;-80
2022/04/25 07:17:17;;;;;;;15.70;9.20;;;7.90;1.00;;;;;;5080912;28;20469;-82
2022/04/25 07:19:44;;;;;;;12.80;9.60;;;7.70;1.00;;;;;;5081185;28;20484;-81
2022/04/25 07:30:25;;;;;;;12.23;9.63;;;8.10;1.00;;;;;;5086345;28;20435;-80
2022/04/25 07:32:51;;;;;;;13.00;9.57;;;8.00;1.00;;;;;;5084906;28;20473;-82
2022/04/25 07:35:20;;;;;;;8.83;7.83;;;;;;;;;;5086395;28;20445;-80
2022/04/25 07:37:48;;;;;;;10.80;8.03;;;8.20;1.00;;;;;;5086628;28;20561;-80
2022/04/25 07:40:15;;;;;;;8.97;8.13;;;8.30;1.00;;;;;;5085895;28;20441;-79
2022/04/25 07:42:41;;;;;;;10.63;7.70;;;8.50;1.00;;;;;;5088089;28;20480;-79
2022/04/25 07:45:09;;;;;;;12.27;9.20;;;8.40;1.00;;;;;;5086072;28;20451;-78
2022/04/25 07:47:36;;;;;;;8.93;7.63;;;8.30;1.00;;;;;;5083601;28;20834;-78
2022/04/25 07:50:04;;;;;;;12.43;8.50;;;8.60;1.00;;;;;;5087374;28;20488;-79
2022/04/25 07:52:30;;;;;;;13.23;8.80;;;8.60;1.00;;;;;;5086021;28;20445;-79
2022/04/25 07:54:58;;;;;;;15.73;9.20;;;8.40;1.00;;;;;;5087118;28;20445;-81
2022/04/25 07:57:25;;;;;;;10.60;8.43;;;8.40;1.00;;;;;;5081139;28;20419;-79
2022/04/25 07:59:52;;;;;;;14.23;8.27;;;8.40;1.00;;;;;;5081643;28;20408;-81
2022/04/25 08:02:19;;;;;;;9.00;7.60;;;8.70;1.00;;;;;;5082123;28;20484;-80
2022/04/25 08:04:46;;;;;;;8.87;7.97;;;8.70;99.90;;;;;;5081334;28;20890;-80
2022/04/25 08:07:12;;;;;;;9.23;7.37;;;8.60;1.00;;;;;;5082199;28;20427;-80
2022/04/25 08:09:39;;;;;;;10.87;7.60;;;8.50;1.00;;;;;;5083369;28;20481;-80
2022/04/25 08:20:17;;;;;;;13.10;7.70;;;8.60;1.00;;;;;;5079789;28;20395;-80
2022/04/25 08:22:45;;;;;;;10.23;8.00;;;8.90;1.00;;;;;;5080786;28;20991;-81
2022/04/25 08:25:12;;;;;;;14.43;7.97;;;9.20;1.00;;;;;;5080164;28;20946;-80
2022/04/25 08:27:40;;;;;;;11.30;8.30;;;9.40;99.90;;;;;;5081962;28;20443;-80
2022/04/25 08:30:07;;;;;;;16.37;7.37;;;9.20;15.10;;;;;;5089001;28;20481;-81
2022/04/25 08:32:34;;;;;;;9.73;6.97;;;9.40;99.90;;;;;;5089155;28;20437;-78
2022/04/25 08:35:01;;;;;;;9.33;6.60;;;9.50;1.00;;;;;;5087508;28;20447;-80
2022/04/25 08:37:28;;;;;;;10.03;7.23;;;9.50;1.00;;;;;;5079335;28;20452;-79
2022/04/25 08:39:54;;;;;;;9.33;7.40;;;9.40;1.00;;;;;;5078461;28;20428;-79
2022/04/25 08:42:21;;;;;;;8.87;6.93;;;9.20;1.00;;;;;;5079299;28;20423;-77
2022/04/25 08:44:51;;;;;;;8.97;6.90;;;9.10;99.90;;;;;;5087801;28;20424;-79
2022/04/25 08:47:19;;;;;;;9.13;7.30;;;9.20;99.90;;;;;;5095471;28;20897;-78
2022/04/25 08:49:46;;;;;;;7.93;6.10;;;8.90;99.90;;;;;;5091821;28;20455;-77
2022/04/25 08:52:13;;;;;;;9.33;6.83;;;9.20;99.90;;;;;;5082216;28;20449;-79
2022/04/25 08:54:42;;;;;;;10.90;7.37;;;9.10;99.90;;;;;;5079925;28;20420;-79
2022/04/25 08:57:10;;;;;;;14.10;7.03;;;9.20;99.90;;;;;;5078921;28;20925;-79
2022/04/25 08:59:38;;;;;;;10.40;7.20;;;9.10;99.90;;;;;;5079259;28;20477;-78
2022/04/25 09:02:07;;;;;;;13.30;7.63;;;9.50;1.00;;;;;;5086743;28;20443;-77
2022/04/25 09:04:33;;;;;;;8.20;6.73;;;9.40;1.00;;;;;;5093158;28;20437;-79
2022/04/25 09:07:00;;;;;;;14.23;7.00;;;9.40;1.00;;;;;;5092385;28;20441;-78
2022/04/25 09:09:26;;;;;;;6.27;5.63;;;9.50;99.90;;;;;;5085923;28;20480;-78
2022/04/25 09:12:14;;;;;;;8.23;6.23;;;9.30;99.90;;;;;;5087138;28;20418;-77
2022/04/25 09:14:42;;;;;;;11.83;6.70;;;9.20;1.00;;;;;;5085605;28;20432;-80
2022/04/25 09:17:10;;;;;;;8.10;6.63;;;9.80;99.90;;;;;;5085420;28;20420;-78
2022/04/25 09:19:39;;;;;;;7.10;6.20;;;9.70;99.90;;;;;;5088558;28;20480;-77
2022/04/25 09:22:06;;;;;;;11.90;8.63;;;9.90;99.90;;;;;;5089019;28;20845;-77
2022/04/25 09:24:34;;;;;;;6.37;5.60;;;9.70;1.00;;;;;;5084196;28;20440;-79
2022/04/25 09:27:18;;;;;;;8.33;6.13;;;10.00;1.00;;;;;;5079428;28;20455;-79
2022/04/25 09:29:46;;;;;;;9.40;6.90;;;10.70;99.90;;;;;;5085771;28;20488;-77
2022/04/25 09:32:16;;;;;;;6.60;5.87;;;10.80;1.00;;;;;;5087985;28;20480;-77
2022/04/25 09:35:03;;;;;;;6.60;5.83;;;10.90;99.90;;;;;;5081016;28;20836;-79
2022/04/25 09:37:41;;;;;;;8.50;7.00;;;10.70;1.00;;;;;;5077946;28;21048;-79
2022/04/25 09:40:09;;;;;;;13.03;5.77;;;10.70;1.00;;;;;;5080508;28;20455;-78
2022/04/25 09:42:36;;;;;;;8.93;5.60;;;10.90;1.00;;;;;;5088376;28;20444;-78
2022/04/25 09:45:04;;;;;;;9.43;6.53;;;10.90;1.00;;;;;;5085544;28;20448;-78
2022/04/25 09:47:33;;;;;;;9.40;6.57;;;10.30;1.00;;;;;;5083000;28;21048;-79
2022/04/25 09:50:06;;;;;;;6.90;5.73;;;10.40;1.00;;;;;;5083171;28;20484;-77
2022/04/25 09:52:34;;;;;;;7.40;5.83;;;10.60;1.00;;;;;;5081453;28;20407;-81
2022/04/25 09:55:11;;;;;;;8.37;5.80;;;10.70;1.00;;;;;;5081088;28;20943;-81
2022/04/25 09:57:42;;;;;;;5.50;5.10;;;10.80;99.90;;;;;;5081715;28;20533;-77
2022/04/25 10:00:10;;;;;;;5.80;5.30;;;10.70;99.90;;;;;;5083591;28;20502;-79
2022/04/25 10:02:40;;;;;;;6.40;5.20;;;10.70;20.10;;;;;;5083160;28;20468;-80
2022/04/25 10:05:15;;;;;;;7.17;4.13;;;10.80;99.90;;;;;;5080897;28;20435;-78
2022/04/25 10:07:42;;;;;;;6.60;5.27;;;10.80;99.90;;;;;;5078739;28;20468;-79
2022/04/25 10:10:10;;;;;;;8.30;6.23;;;10.90;1.00;;;;;;5083762;28;20446;-79
2022/04/25 10:12:37;;;;;;;7.97;5.67;;;10.60;1.00;;;;;;5079863;28;20415;-78
2022/04/25 10:15:04;;;;;;;6.63;5.13;;;10.90;1.00;;;;;;5077913;28;20843;-80
2022/04/25 10:17:32;;;;;;;7.97;5.47;;;11.00;99.90;;;;;;5078241;28;20484;-79
2022/04/25 10:20:00;;;;;;;7.07;5.17;;;11.20;99.90;;;;;;5080480;28;20487;-77
2022/04/25 10:22:27;;;;;;;5.33;4.73;;;11.30;99.90;;;;;;5087263;28;20419;-79
2022/04/25 10:24:54;;;;;;;6.83;5.57;;;11.30;99.90;;;;;;5085312;28;20761;-78
2022/04/25 10:27:27;;;;;;;6.27;4.20;;;10.60;99.90;;;;;;5079300;28;20790;-79
2022/04/25 10:29:56;;;;;;;7.07;5.10;;;11.00;99.90;;;;;;5078510;28;20476;-78
2022/04/25 10:32:24;;;;;;;8.60;5.83;;;11.00;99.90;;;;;;5079625;28;20497;-78
2022/04/25 10:34:54;;;;;;;6.20;5.60;;;11.10;99.90;;;;;;5080129;28;20449;-80
2022/04/25 10:37:35;;;;;;;5.03;4.53;;;11.80;1.00;;;;;;5079797;28;20450;-78
2022/04/25 10:40:04;;;;;;;5.27;3.83;;;11.70;1.00;;;;;;5097808;22;20553;-78
2022/04/25 10:45:16;;;;;;;4.87;4.43;;;11.80;1.00;;;;;;5075478;28;20401;-77
2022/04/25 10:47:59;;;;;;;6.90;4.50;;;12.10;1.00;;;;;;5074365;28;20481;-79
2022/04/25 10:50:26;;;;;;;11.77;5.17;;;12.10;99.90;;;;;;5054614;28;21020;-79
2022/04/25 10:52:56;;;;;;;4.83;4.47;;;11.60;1.00;;;;;;5055426;28;20770;-78
2022/04/25 10:55:33;;;;;;;4.43;4.00;;;11.60;1.00;;;;;;5056020;28;20430;-79
2022/04/25 10:58:18;;;;;;;4.70;4.30;;;11.50;1.00;;;;;;5056760;28;20462;-80
2022/04/25 11:00:56;;;;;;;4.23;3.93;;;11.90;1.00;;;;;;5055469;28;20947;-78
2022/04/25 11:03:28;;;;;;;4.07;3.77;;;12.20;99.90;;;;;;5055296;28;20462;-78
2022/04/25 11:05:56;;;;;;;5.60;5.03;;;12.20;99.90;;;;;;5054293;28;20431;-78
2022/04/25 11:08:26;;;;;;;5.30;4.13;;;12.40;99.90;;;;;;5056835;28;20528;-77
2022/04/25 11:11:16;;;;;;;3.90;3.60;;;12.40;99.90;;;;;;5059237;28;20460;-79
2022/04/25 11:14:11;;;;;;;8.23;4.70;;;12.50;99.90;;;;;;5064215;28;20480;-82
2022/04/25 11:16:39;;;;;;;6.17;4.60;;;12.80;99.90;;;;;;5022159;28;20449;-78
2022/04/25 11:19:11;;;;;;;4.23;3.73;;;12.80;99.90;;;;;;5054393;28;20465;-77
2022/04/25 11:21:46;;;;;;;8.10;4.30;;;12.70;99.90;;;;;;5056862;28;20441;-83
2022/04/25 11:24:33;;;;;;;10.03;4.70;;;12.80;99.90;;;;;;5055637;28;20513;-78
2022/04/25 11:27:01;;;;;;;6.60;4.37;;;12.90;99.90;;;;;;5054464;28;20404;-78
2022/04/25 11:29:28;;;;;;;4.60;4.00;;;13.00;99.90;;;;;;5055408;28;20470;-79
2022/04/25 11:32:23;;;;;;;6.00;4.00;;;13.00;99.90;;;;;;5053813;28;20481;-78
2022/04/25 11:34:50;;;;;;;5.80;4.30;;;13.10;99.90;;;;;;5054963;28;20437;-78
2022/04/25 11:37:18;;;;;;;6.53;5.17;;;13.00;30.20;;;;;;5057943;28;20495;-79
2022/04/25 11:39:57;;;;;;;6.30;4.97;;;13.40;79.90;;;;;;5057784;28;20542;-78
2022/04/25 11:42:26;;;;;;;5.87;5.20;;;13.30;1.00;;;;;;5058528;28;20435;-78
2022/04/25 11:44:55;;;;;;;4.30;3.90;;;13.20;37.00;;;;;;5057585;28;20445;-79
2022/04/25 11:47:22;;;;;;;4.40;4.00;;;13.60;20.20;;;;;;5058410;28;20424;-78
2022/04/25 11:49:56;;;;;;;4.27;3.90;;;13.60;1.00;;;;;;5058236;28;20464;-78
2022/04/25 11:52:22;;;;;;;6.10;4.97;;;13.30;1.00;;;;;;5058458;28;20478;-78
2022/04/25 11:54:49;;;;;;;7.63;3.70;;;13.50;1.00;;;;;;5059408;28;20449;-78
2022/04/25 11:57:17;;;;;;;5.00;4.50;;;13.50;1.00;;;;;;5058776;28;20453;-77
2022/04/25 11:59:44;;;;;;;5.30;4.80;;;13.10;34.80;;;;;;5058859;28;20889;-77
2022/04/25 12:02:11;;;;;;;6.03;3.57;;;13.10;1.00;;;;;;5058626;28;20423;-78
2022/04/25 12:04:39;;;;;;;5.03;4.00;;;13.20;1.00;;;;;;5061202;28;20449;-79
2022/04/25 12:07:07;;;;;;;4.50;4.10;;;13.30;1.00;;;;;;5058199;28;20480;-79
2022/04/25 12:15:37;;;;;;;4.40;3.77;;;13.50;1.00;;;;;;4997727;28;20412;-78
2022/04/25 12:18:15;;;;;;;4.70;4.40;;;13.10;2.60;;;;;;5037712;28;20491;-77
2022/04/25 12:20:44;;;;;;;5.50;4.67;;;13.50;1.00;;;;;;5057074;28;20437;-78
2022/04/25 12:23:19;;;;;;;7.00;5.30;;;13.60;1.00;;;;;;5057040;28;20454;-78
2022/04/25 12:25:46;;;;;;;7.70;4.77;;;13.30;1.00;;;;;;5056367;28;20410;-78
2022/04/25 12:28:19;;;;;;;4.90;4.33;;;13.20;1.00;;;;;;5056787;28;20500;-79
2022/04/25 12:30:51;;;;;;;9.87;4.63;;;13.20;1.00;;;;;;5056890;28;20469;-83
2022/04/25 12:33:19;;;;;;;6.70;4.70;;;13.50;1.00;;;;;;5056612;28;20504;-76
2022/04/25 12:35:48;;;;;;;6.13;5.13;;;13.70;1.00;;;;;;5055778;28;20449;-76
2022/04/25 12:38:39;;;;;;;4.50;4.20;;;13.50;1.00;;;;;;5056229;28;20486;-74
2022/04/25 12:41:06;;;;;;;7.40;4.70;;;13.20;1.00;;;;;;5056864;28;20441;-77
2022/04/25 12:43:46;;;;;;;6.77;4.83;;;13.10;1.00;;;;;;5056708;28;20446;-78
2022/04/25 12:46:14;;;;;;;7.23;4.60;;;12.90;1.00;;;;;;5055723;28;20462;-78
2022/04/25 12:49:01;;;;;;;6.00;4.73;;;13.20;1.00;;;;;;5056082;28;20496;-78
2022/04/25 12:51:58;;;;;;;4.20;3.90;;;13.70;1.00;;;;;;5056052;28;20481;-77
2022/04/25 12:54:27;;;;;;;4.43;4.03;;;13.70;1.00;;;;;;5054819;28;20956;-77
2022/04/25 12:57:08;;;;;;;5.17;4.77;;;13.70;1.00;;;;;;5056222;28;20994;-79
2022/04/25 12:59:37;;;;;;;5.23;4.60;;;13.70;1.00;;;;;;5060550;28;20468;-81
2022/04/25 13:02:07;;;;;;;5.27;4.87;;;13.60;1.00;;;;;;5062079;28;20472;-81
2022/04/25 13:04:48;;;;;;;6.83;6.13;;;13.30;1.00;;;;;;5066266;28;20509;-83
2022/04/25 13:07:14;;;;;;;10.53;5.50;;;13.40;1.00;;;;;;5057166;28;20430;-78
2022/04/25 13:09:41;;;;;;;5.30;4.77;;;13.40;1.00;;;;;;5058951;28;20496;-79
2022/04/25 13:12:16;;;;;;;5.97;4.50;;;13.60;1.00;;;;;;5058477;28;20560;-79
2022/04/25 13:14:44;;;;;;;5.10;4.70;;;13.90;1.00;;;;;;5058046;28;20430;-79
2022/04/25 13:17:13;;;;;;;8.10;5.10;;;13.90;1.00;;;;;;5060050;28;20449;-82
2022/04/25 13:19:39;;;;;;;6.53;4.50;;;14.00;1.00;;;;;;5063001;28;20468;-81
2022/04/25 13:22:06;;;;;;;6.70;5.00;;;14.40;1.00;;;;;;5068114;28;20417;-82
2022/04/25 13:24:36;;;;;;;6.67;5.27;;;14.10;1.00;;;;;;5068749;28;20447;-77
2022/04/25 13:27:06;;;;;;;7.10;4.97;;;14.40;1.00;;;;;;5057687;28;20901;-77
2022/04/25 13:29:32;;;;;;;6.87;5.00;;;14.60;1.00;;;;;;5057354;28;20474;-77
2022/04/25 13:32:00;;;;;;;6.17;5.60;;;14.40;1.00;;;;;;5056359;28;20505;-78